Latest Weather Observations for Mount Hotham Airport

IDV60801

Issued at 2:31 pm EDT Saturday 20 December 2014 (issued every 30 minutes, with the page automatically refreshed every 10 minutes)

About weather observations | Map of weather stations | Latest weather observations for VIC | Other Formats
Station Details ID: 083055 Name: MOUNT HOTHAM AIRPORT Lat: -37.05 Lon: 147.33 Height: 1295.4 m
Data from the previous 72 hours. | See also: Recent months at Mount Hotham Airport
Date/Time
EDT
Temp
°C
App
Temp
°C
Dew
Point
Rel
Hum
%
Delta-T
°C
Wind Press
QNH
hPa
Press
MSL
hPa
Rain
since 9 am
mm
Dir
 
Spd
km/h
Gust
km/h
Spd
kts
Gust
kts
20/02:30pm 17.9 14.8 7.3 50 5.7 S 13 20 7 11 1019.1 - 0.0
20/02:00pm 17.5 15.4 8.1 54 5.1 E 9 17 5 9 1019.1 - 0.0
20/01:30pm 18.9 17.0 10.5 58 4.8 ESE 11 20 6 11 1019.1 - 0.0
20/01:00pm 18.2 15.7 9.8 58 4.7 E 13 20 7 11 1019.3 - 0.0
20/12:30pm 16.8 14.7 8.2 57 4.7 E 9 17 5 9 1019.4 - 0.0
20/12:00pm 16.9 14.2 7.5 54 5.0 SSW 11 20 6 11 1019.4 1017.0 0.0
20/11:30am 17.1 14.9 7.7 54 5.1 SW 9 19 5 10 1019.4 - 0.0
20/11:00am 16.8 15.1 7.4 54 5.0 S 6 13 3 7 1019.4 - 0.0
20/10:30am 16.8 15.0 8.0 56 4.8 E 7 15 4 8 1019.3 - 0.0
20/10:00am 16.0 13.8 6.4 53 5.0 E 7 13 4 7 1019.4 - 0.0
20/09:30am 14.6 12.4 5.1 53 4.8 SE 6 11 3 6 1019.3 - 0.0
20/09:00am 13.5 11.7 5.2 57 4.2 W 4 7 2 4 1019.1 1016.8 0.0
20/08:30am 12.1 10.4 3.9 57 4.0 WSW 2 6 1 3 1019.0 - 0.0
20/08:00am 11.0 8.4 3.3 59 3.6 SW 6 9 3 5 1018.9 - 0.0
20/07:30am 9.0 6.8 1.2 58 3.5 NW 2 4 1 2 1018.7 - 0.0
20/07:00am 6.8 5.2 2.7 75 1.8 CALM 0 4 0 2 1018.4 - 0.0
20/06:30am 3.7 0.9 -0.5 74 1.7 NW 4 6 2 3 1018.1 - 0.0
20/06:00am 3.6 0.2 -2.1 66 2.2 NW 6 6 3 3 1017.9 1015.5 0.0
20/05:30am 1.6 -1.8 -2.0 77 1.4 NNW 6 7 3 4 1017.9 - 0.0
20/05:00am 1.2 -0.8 -0.3 90 0.6 CALM 0 4 0 2 1017.8 - 0.0
20/04:30am 1.5 -1.4 1.2 98 0.1 NNW 6 7 3 4 1017.6 - 0.0
20/04:00am 1.6 -0.9 1.5 99 0.0 N 4 6 2 3 1017.8 - 0.0
20/03:30am 2.4 -0.4 2.3 99 0.0 WNW 6 7 3 4 1017.7 - 0.0
20/03:00am 2.2 -0.8 2.1 99 0.0 NW 7 7 4 4 1017.9 1015.5 0.0
20/02:30am 3.1 0.8 3.0 99 0.0 WNW 4 4 2 2 1018.2 - 0.0
20/02:00am 3.1 0.4 2.7 97 0.2 WNW 6 6 3 3 1018.6 - 0.0
20/01:30am 4.1 1.9 3.4 95 0.3 SW 4 7 2 4 1018.8 - 0.0
20/01:00am 5.1 2.7 4.5 96 0.3 W 6 11 3 6 1019.1 - 0.0
20/12:30am 5.3 3.4 5.0 98 0.1 WSW 4 6 2 3 1019.4 - 0.0
20/12:00am 5.1 2.6 5.0 99 0.0 SW 7 9 4 5 1019.7 1017.4 0.0
 
Date/Time
EDT
Temp
°C
App
Temp
°C
Dew
Point
Rel
Hum
%
Delta-T
°C
Wind Press
QNH
hPa
Press
MSL
hPa
Rain
since 9 am
mm
Dir
 
Spd
km/h
Gust
km/h
Spd
kts
Gust
kts
19/11:30pm 4.3 1.9 4.2 99 0.0 SW 6 7 3 4 1019.8 - 0.0
19/11:00pm 3.4 0.8 3.0 97 0.2 SW 6 7 3 4 1020.1 - 0.0
19/10:30pm 3.3 0.9 2.4 94 0.4 SW 4 6 2 3 1020.1 - 0.0
19/10:00pm 3.8 1.0 2.9 94 0.4 SSW 7 7 4 4 1019.7 - 0.0
19/09:30pm 4.2 1.5 2.9 91 0.6 SSW 6 7 3 4 1019.4 - 0.0
19/09:00pm 5.6 3.0 3.3 85 1.0 S 6 7 3 4 1019.4 1017.0 0.0
19/08:30pm 6.7 4.0 3.7 81 1.4 S 7 11 4 6 1019.1 - 0.0
19/08:00pm 8.0 4.6 4.0 76 1.9 S 11 17 6 9 1019.0 - 0.0
19/07:30pm 8.8 5.0 3.8 71 2.3 S 13 20 7 11 1018.6 - 0.0
19/07:00pm 10.8 6.7 4.3 64 3.1 SSW 15 20 8 11 1017.8 - 0.0
19/06:30pm 10.4 7.0 4.1 65 3.0 S 11 17 6 9 1017.4 - 0.0
19/06:00pm 11.5 8.2 4.5 62 3.4 S 11 15 6 8 1017.2 1014.8 0.0
19/05:30pm 11.1 7.3 3.9 61 3.5 S 13 17 7 9 1017.2 - 0.0
19/05:00pm 11.6 8.3 4.8 63 3.3 S 11 20 6 11 1016.9 - 0.0
19/04:30pm 11.4 8.5 4.8 64 3.2 SSE 9 13 5 7 1016.8 - 0.0
19/04:00pm 11.6 8.3 4.8 63 3.3 S 11 17 6 9 1016.8 - 0.0
19/03:30pm 11.4 8.0 4.2 61 3.5 SSE 11 20 6 11 1016.7 - 0.0
19/03:00pm 11.5 7.8 4.3 61 3.5 SW 13 19 7 10 1016.7 1014.2 0.0
19/02:30pm 11.7 8.0 4.2 60 3.6 S 13 20 7 11 1016.3 - 0.0
19/02:00pm 12.0 8.6 3.8 57 4.0 SSW 11 17 6 9 1016.3 - 0.0
19/01:30pm 11.2 7.5 4.4 63 3.3 S 13 24 7 13 1016.4 - 0.0
19/01:00pm 11.0 6.9 4.2 63 3.3 SSE 15 28 8 15 1016.3 - 0.0
19/12:30pm 10.4 6.5 3.2 61 3.4 SSE 13 22 7 12 1016.2 - 0.0
19/12:00pm 9.5 6.2 2.6 62 3.2 S 9 20 5 11 1016.2 1013.8 0.0
19/11:30am 9.5 5.8 2.6 62 3.2 S 11 20 6 11 1016.2 - 0.0
19/11:00am 8.7 5.3 1.8 62 3.1 SSW 9 15 5 8 1016.0 - 0.0
19/10:30am 7.1 3.7 1.6 68 2.4 SSW 9 13 5 7 1016.0 - 0.0
19/10:00am 7.0 5.0 2.5 73 2.0 S 2 2 1 1 1015.6 - 0.0
19/09:30am 7.0 3.7 2.3 72 2.1 S 9 17 5 9 1015.6 - 0.0
19/09:00am 6.3 3.4 2.8 78 1.6 SW 7 13 4 7 1015.5 1013.1 0.0
19/08:30am 5.5 2.1 1.8 77 1.6 S 9 20 5 11 1015.2 - 0.0
19/08:00am 5.4 1.3 2.2 80 1.4 SSW 13 20 7 11 1014.7 - 0.0
19/07:30am 5.5 2.4 1.2 74 1.8 SW 7 11 4 6 1014.0 - 0.0
19/07:00am 4.6 1.5 1.6 81 1.3 SSW 7 13 4 7 1013.8 - 0.0
19/06:30am 3.3 0.3 2.0 91 0.6 WSW 7 11 4 6 1013.5 - 0.0
19/06:00am 2.0 -1.2 0.7 91 0.5 SSW 7 9 4 5 1013.2 1010.8 0.0
19/05:30am 2.7 -0.4 1.1 89 0.7 WSW 7 11 4 6 1012.9 - 0.0
19/05:00am 3.9 -0.3 1.9 87 0.9 SW 13 19 7 10 1012.7 - 0.0
19/04:30am 3.3 -0.6 1.3 87 0.8 SW 11 17 6 9 1012.3 - 0.0
19/04:00am 3.3 -1.3 1.3 87 0.8 SW 15 19 8 10 1012.2 - 0.0
19/03:30am 3.9 -0.2 2.1 88 0.8 SW 13 19 7 10 1012.1 - 0.0
19/03:00am 4.4 0.4 2.6 88 0.8 SSW 13 19 7 10 1012.3 1009.8 0.0
19/02:30am 5.2 0.5 3.2 87 0.9 SSW 17 22 9 12 1012.5 - 0.0
19/02:00am 5.9 2.5 4.1 88 0.8 SSW 11 19 6 10 1012.6 - 0.0
19/01:30am 5.9 3.6 4.9 93 0.5 S 6 9 3 5 1012.6 - 0.0
19/01:00am 5.4 2.7 3.9 90 0.7 SSW 7 9 4 5 1012.5 - 0.0
19/12:30am 6.1 3.4 3.8 85 1.1 SW 7 11 4 6 1012.5 - 0.0
19/12:00am 7.1 4.6 4.6 84 1.2 SW 7 11 4 6 1012.5 1009.9 0.0
 
Date/Time
EDT
Temp
°C
App
Temp
°C
Dew
Point
Rel
Hum
%
Delta-T
°C
Wind Press
QNH
hPa
Press
MSL
hPa
Rain
since 9 am
mm
Dir
 
Spd
km/h
Gust
km/h
Spd
kts
Gust
kts
18/11:30pm 4.7 1.9 2.2 84 1.1 W 6 9 3 5 1012.5 - 0.0
18/11:00pm 6.6 3.5 3.6 81 1.4 WSW 9 15 5 8 1012.3 - 0.0
18/10:30pm 6.8 3.4 3.8 81 1.4 W 11 20 6 11 1012.2 - 0.0
18/10:00pm 7.3 4.8 3.9 79 1.6 WNW 6 7 3 4 1012.0 - 0.0
18/09:30pm 10.1 5.0 2.9 61 3.4 WNW 19 28 10 15 1012.1 - 0.0
18/09:00pm 11.4 5.5 1.6 51 4.5 W 22 30 12 16 1011.5 1009.0 0.0
18/08:30pm 11.9 6.3 0.1 44 5.2 WNW 19 28 10 15 1011.0 - 0.0
18/08:00pm 12.4 6.6 0.2 43 5.5 WNW 20 35 11 19 1010.4 - 0.0
18/07:30pm 12.8 6.8 1.2 45 5.3 WNW 22 35 12 19 1010.3 - 0.0
18/07:00pm 13.9 8.0 1.5 43 5.8 NW 22 33 12 18 1009.7 - 0.0
18/06:41pm 13.4 6.3 1.4 44 5.6 NW 28 46 15 25 1009.2 - 0.0
18/06:30pm 14.6 7.7 2.5 44 5.8 WNW 28 39 15 21 1009.3 - 0.0
18/06:22pm 14.2 7.8 3.4 48 5.2 WNW 26 39 14 21 1009.3 - 0.0
18/06:03pm 15.2 8.4 3.0 44 5.9 WNW 28 41 15 22 1009.1 - 0.0
18/06:00pm 15.5 8.3 0.9 37 6.8 WNW 28 41 15 22 1008.9 1006.3 0.0
18/05:30pm 16.5 9.4 1.4 36 7.2 WNW 28 41 15 22 1008.8 - 0.0
18/05:06pm 16.8 9.1 -0.4 31 7.9 WNW 30 50 16 27 1008.6 - 0.0
18/05:00pm 17.3 10.6 1.7 35 7.5 NW 26 39 14 21 1008.5 - 0.0
18/04:30pm 16.7 9.6 1.6 36 7.2 WNW 28 48 15 26 1008.8 - 0.0
18/04:14pm 17.7 10.8 2.5 36 7.4 WNW 28 50 15 27 1008.7 - 0.0
18/04:00pm 17.0 10.4 1.8 36 7.3 WNW 26 43 14 23 1008.7 - 0.0
18/03:30pm 15.7 8.3 1.8 39 6.6 WNW 30 52 16 28 1008.8 - 0.0
18/03:20pm 17.5 10.8 3.4 39 7.0 NW 28 54 15 29 1008.9 - 0.0
18/03:00pm 15.9 9.0 2.3 40 6.6 NW 28 39 15 21 1008.9 1006.3 0.0
18/02:30pm 16.0 8.6 2.1 39 6.7 WNW 30 48 16 26 1009.3 - 0.0
18/02:28pm 16.3 9.4 2.3 39 6.8 WNW 28 48 15 26 1009.3 - 0.0
18/02:00pm 17.0 11.1 3.7 41 6.6 WNW 24 39 13 21 1009.3 - 0.0
18/01:30pm 16.1 10.0 2.9 41 6.4 NW 24 46 13 25 1009.1 - 0.0
18/01:00pm 16.6 10.3 4.0 43 6.3 NW 26 50 14 27 1009.1 - 0.0
18/12:56pm 16.6 9.8 3.3 41 6.6 NW 28 50 15 27 1009.1 - 0.0
18/12:30pm 16.8 10.8 5.1 46 6.0 NW 26 41 14 22 1009.2 - 0.0
18/12:06pm 16.0 9.3 3.8 44 6.1 WNW 28 46 15 25 1009.3 - 0.0
18/12:00pm 15.6 7.7 2.1 40 6.5 NW 33 48 18 26 1009.4 1006.8 0.0
18/11:51am 15.9 9.0 2.3 40 6.5 NW 28 48 15 26 1009.3 - 0.0
18/11:30am 15.7 9.3 3.2 43 6.1 NW 26 41 14 22 1009.4 - 0.0
18/11:00am 15.4 10.0 2.6 42 6.2 WNW 20 28 11 15 1009.5 - 0.0
18/10:30am 14.8 10.7 2.0 42 6.1 N 13 19 7 10 1009.6 - 0.0
18/10:00am 14.8 9.8 1.3 40 6.3 NNW 17 24 9 13 1009.7 - 0.0
18/09:30am 13.9 9.1 0.2 39 6.2 NW 15 22 8 12 1009.6 - 0.0
18/09:00am 13.4 8.4 -1.0 37 6.4 NW 15 22 8 12 1009.6 1007.0 0.0
18/08:30am 12.7 7.0 0.8 44 5.4 NW 20 28 11 15 1009.7 - 0.0
18/08:00am 11.7 4.7 -0.8 42 5.4 NW 26 35 14 19 1009.6 - 0.0
18/07:30am 10.8 5.0 -0.3 46 4.8 NW 20 30 11 16 1009.3 - 0.0
18/07:00am 9.6 3.4 -0.3 50 4.3 WNW 22 32 12 17 1009.1 - 0.0
18/06:30am 8.5 1.5 -0.8 52 3.9 WNW 26 35 14 19 1008.7 - 0.0
18/06:00am 8.1 0.7 -0.9 53 3.8 WNW 28 35 15 19 1008.3 1005.6 0.0
18/05:30am 8.4 0.2 -1.1 51 4.0 WNW 32 46 17 25 1008.1 - 0.0
18/05:00am 8.4 0.6 -0.9 52 3.9 NW 30 43 16 23 1007.7 - 0.0
18/04:58am 8.1 0.7 -0.6 54 3.7 NW 28 43 15 23 1007.7 - 0.0
18/04:30am 6.5 1.9 1.4 70 2.2 NW 15 22 8 12 1007.7 - 0.0
18/04:12am 2.9 0.0 2.8 99 0.0 NW 7 13 4 7 1007.8 - 0.0
18/04:00am 2.5 0.1 2.4 99 0.0 NNW 4 13 2 7 1007.8 - 0.0
18/03:53am 2.2 0.5 2.1 99 0.0 CALM 0 4 0 2 1007.9 - 0.0
18/03:52am 2.0 0.3 1.9 99 0.0 CALM 0 4 0 2 1007.9 - 0.0
18/03:30am 2.6 1.0 2.5 99 0.0 CALM 0 2 0 1 1008.0 - 0.0
18/03:00am 2.7 0.0 2.6 99 0.0 NW 6 7 3 4 1008.4 1005.7 0.0
18/02:30am 4.7 2.4 4.6 99 0.0 NNW 6 7 3 4 1008.5 - 0.0
18/02:20am 4.3 2.3 4.2 99 0.0 NNW 4 6 2 3 1008.7 - 0.0
18/02:15am 5.2 3.3 5.1 99 0.0 NNW 4 7 2 4 1008.6 - 0.0
18/02:00am 5.7 3.9 5.6 99 0.0 WNW 4 6 2 3 1008.9 - 0.0
18/01:30am 6.1 4.8 6.0 99 0.0 NW 2 4 1 2 1009.3 - 0.0
18/01:28am 6.1 4.8 6.0 99 0.0 N 2 6 1 3 1009.2 - 0.0
18/01:00am 6.3 4.7 6.2 99 0.0 NE 4 6 2 3 1009.5 - 0.0
18/12:30am 6.6 5.4 6.5 99 0.0 NNE 2 6 1 3 1009.6 - 0.0
18/12:00am 6.9 5.0 6.8 99 0.0 NE 6 7 3 4 1010.1 1007.5 0.0
 
Date/Time
EDT
Temp
°C
App
Temp
°C
Dew
Point
Rel
Hum
%
Delta-T
°C
Wind Press
QNH
hPa
Press
MSL
hPa
Rain
since 9 am
mm
Dir
 
Spd
km/h
Gust
km/h
Spd
kts
Gust
kts
17/11:30pm 6.9 4.8 6.8 99 0.0 E 7 9 4 5 1010.4 - 0.0
17/11:00pm 6.9 5.0 6.8 99 0.0 SE 6 9 3 5 1010.8 - 0.0
17/10:30pm 6.7 5.2 6.6 99 0.0 SE 4 6 2 3 1010.8 - 0.0
17/10:00pm 6.1 4.0 6.0 99 0.0 SE 6 7 3 4 1011.0 - 0.0
17/09:30pm 6.3 4.0 5.6 95 0.3 SE 7 11 4 6 1011.0 - 0.0
17/09:00pm 7.3 4.6 5.8 90 0.7 SE 9 13 5 7 1010.6 1008.1 0.0
17/08:30pm 8.6 5.2 5.9 83 1.3 ESE 13 17 7 9 1010.5 - 0.0
17/08:00pm 10.6 7.5 5.6 71 2.5 SE 11 17 6 9 1010.3 - 0.0
17/07:30pm 12.8 9.0 5.9 63 3.5 ESE 15 19 8 10 1009.8 - 0.0
17/07:00pm 13.6 10.3 6.2 61 3.8 SE 13 19 7 10 1009.4 - 0.0
17/06:30pm 13.6 10.2 6.0 60 3.9 SSE 13 17 7 9 1008.8 - 0.0
17/06:00pm 15.8 13.0 6.8 55 4.8 SE 11 17 6 9 1008.7 1006.1 0.0
17/05:30pm 15.6 12.7 6.3 54 4.8 SE 11 19 6 10 1008.6 - 0.0
17/05:00pm 14.9 11.6 4.6 50 5.2 ESE 11 19 6 10 1008.6 - 0.0
17/04:30pm 16.4 13.6 6.8 53 5.1 E 11 20 6 11 1008.8 - 0.0
17/04:00pm 15.4 11.9 5.6 52 5.0 SE 13 20 7 11 1008.9 - 0.0
17/03:30pm 14.7 11.1 5.2 53 4.8 SE 13 22 7 12 1009.1 - 0.0
17/03:00pm 15.6 12.7 4.6 48 5.6 E 9 17 5 9 1008.9 1006.3 0.0

Other Formats:

Comma delimited format used in spreadsheet applications
http://www.bom.gov.au/fwo/IDV60801/IDV60801.94905.axf

JavaScript Object Notation format (JSON) in row-major order
http://www.bom.gov.au/fwo/IDV60801/IDV60801.94905.json